createdAt,value
2022-12-25T00:01:58.673Z,100896.25
2022-12-25T00:05:13.460Z,100898.31
2022-12-25T00:08:28.895Z,100906.72
2022-12-25T00:11:43.528Z,100919.81
2022-12-25T00:14:52.147Z,100913.50
2022-12-25T00:18:00.489Z,100915.34
2022-12-25T00:21:17.452Z,100909.38
2022-12-25T00:24:25.497Z,100915.44
2022-12-25T00:27:40.809Z,100924.94
2022-12-25T00:30:49.505Z,100932.84
2022-12-25T00:33:58.198Z,100940.38
2022-12-25T00:37:12.454Z,100944.50
2022-12-25T00:40:21.475Z,100949.25
2022-12-25T00:43:36.564Z,100950.47
2022-12-25T00:46:51.705Z,100949.37
2022-12-25T00:49:53.890Z,100956.53
2022-12-25T00:53:08.459Z,100954.12
2022-12-25T00:56:10.430Z,100969.19
2022-12-25T00:59:25.562Z,100977.72
2022-12-25T01:02:27.641Z,100969.78
2022-12-25T01:05:42.459Z,100968.22
2022-12-25T01:08:44.400Z,100969.31
2022-12-25T01:11:59.468Z,100972.34
2022-12-25T01:15:01.583Z,100969.66
2022-12-25T01:18:16.509Z,100973.69
2022-12-25T01:21:25.265Z,100975.41
2022-12-25T01:24:40.492Z,100982.31
2022-12-25T01:27:48.803Z,100973.81
2022-12-25T01:31:03.500Z,100987.19
2022-12-25T01:34:05.404Z,100990.47
2022-12-25T01:37:20.482Z,100984.06
2022-12-25T01:40:29.274Z,100977.97
2022-12-25T01:44:04.516Z,100987.31
2022-12-25T01:47:07.527Z,101001.94
2022-12-25T01:50:24.490Z,101000.56
2022-12-25T01:53:39.497Z,100988.88
2022-12-25T01:56:50.945Z,100993.53
2022-12-25T02:00:01.524Z,100985.00
2022-12-25T02:03:10.259Z,100975.16
2022-12-25T02:06:18.548Z,100975.28
2022-12-25T02:09:27.188Z,100983.91
2022-12-25T02:12:39.554Z,100971.66
2022-12-25T02:16:13.566Z,100977.09
2022-12-25T02:19:33.435Z,100977.00
2022-12-25T02:23:08.533Z,100983.31
2022-12-25T02:26:56.560Z,100984.19
2022-12-25T02:30:16.496Z,100992.19
2022-12-25T02:33:39.635Z,100988.28
2022-12-25T02:37:08.112Z,100991.56
2022-12-25T02:40:34.508Z,101004.09
2022-12-25T02:43:45.381Z,101005.06
2022-12-25T02:46:54.526Z,101012.97
2022-12-25T02:50:11.667Z,101017.84
2022-12-25T02:53:29.613Z,101015.31
2022-12-25T02:56:48.534Z,101006.91
2022-12-25T02:59:52.067Z,101013.69
2022-12-25T03:03:08.573Z,101015.03
2022-12-25T03:06:19.412Z,101020.13
2022-12-25T03:09:41.567Z,101031.81
2022-12-25T03:13:00.550Z,101036.31
2022-12-25T03:16:09.645Z,101042.25
2022-12-25T03:19:28.558Z,101053.47
2022-12-25T03:22:39.264Z,101046.78
2022-12-25T03:25:53.559Z,101039.47
2022-12-25T03:29:08.569Z,101038.59
2022-12-25T03:32:33.913Z,101043.34
2022-12-25T03:36:16.582Z,101047.00
2022-12-25T03:39:33.364Z,101049.81
2022-12-25T03:42:50.568Z,101059.75
2022-12-25T03:46:10.627Z,101054.88
2022-12-25T03:49:23.895Z,101068.25
2022-12-25T03:52:41.793Z,101069.31
2022-12-25T03:55:44.025Z,101077.94
2022-12-25T03:59:03.612Z,101083.56
2022-12-25T04:02:11.663Z,101084.41
2022-12-25T04:05:26.579Z,101075.75
2022-12-25T04:08:28.506Z,101080.38
2022-12-25T04:11:44.609Z,101077.94
2022-12-25T04:14:46.421Z,101074.41
2022-12-25T04:18:01.660Z,101060.53
2022-12-25T04:21:03.713Z,101059.44
2022-12-25T04:24:19.711Z,101068.56
2022-12-25T04:27:41.588Z,101059.69
2022-12-25T04:30:56.642Z,101078.63
2022-12-25T04:33:58.513Z,101081.19
2022-12-25T04:37:13.612Z,101075.13
2022-12-25T04:40:15.809Z,101080.22
2022-12-25T04:43:30.629Z,101058.59
2022-12-25T04:46:32.515Z,101064.91
2022-12-25T04:49:47.657Z,101059.19
2022-12-25T04:52:49.527Z,101051.78
2022-12-25T04:56:08.708Z,101064.28
2022-12-25T04:59:11.204Z,101067.94
2022-12-25T05:02:25.790Z,101072.06
2022-12-25T05:05:34.296Z,101080.47
2022-12-25T05:08:48.640Z,101084.78
2022-12-25T05:11:57.277Z,101077.22
2022-12-25T05:15:05.606Z,101073.69
2022-12-25T05:18:20.703Z,101087.84
2022-12-25T05:21:28.606Z,101097.69
2022-12-25T05:24:43.620Z,101090.97
2022-12-25T05:28:05.833Z,101090.69
2022-12-25T05:31:14.676Z,101081.94
2022-12-25T05:34:23.449Z,101088.25
2022-12-25T05:37:38.696Z,101088.25
2022-12-25T05:40:47.451Z,101096.78
2022-12-25T05:43:55.677Z,101096.25
2022-12-25T05:47:10.802Z,101099.28
2022-12-25T05:50:19.667Z,101097.47
2022-12-25T05:53:34.635Z,101107.41
2022-12-25T05:56:37.389Z,101112.53
2022-12-25T05:59:51.722Z,101113.47
2022-12-25T06:02:59.741Z,101118.09
2022-12-25T06:06:08.468Z,101124.28
2022-12-25T06:09:23.677Z,101115.50
2022-12-25T06:12:25.509Z,101106.56
2022-12-25T06:15:40.671Z,101104.13
2022-12-25T06:18:51.285Z,101101.56
2022-12-25T06:22:05.687Z,101101.78
2022-12-25T06:25:07.954Z,101100.06
2022-12-25T06:28:29.665Z,101096.25
2022-12-25T06:31:31.729Z,101117.72
2022-12-25T06:34:46.745Z,101107.69
2022-12-25T06:37:54.650Z,101114.44
2022-12-25T06:41:06.209Z,101140.88
2022-12-25T06:44:20.680Z,101142.72
2022-12-25T06:47:30.676Z,101133.72
2022-12-25T06:50:49.705Z,101136.75
2022-12-25T06:53:53.093Z,101146.22
2022-12-25T06:57:07.714Z,101144.09
2022-12-25T07:00:10.128Z,101153.81
2022-12-25T07:03:27.775Z,101168.75
2022-12-25T07:06:36.705Z,101170.34
2022-12-25T07:09:51.659Z,101169.09
2022-12-25T07:13:00.409Z,101189.69
2022-12-25T07:16:10.704Z,101191.16
2022-12-25T07:19:19.535Z,101201.19
2022-12-25T07:22:36.664Z,101203.66
2022-12-25T07:25:44.701Z,101210.59
2022-12-25T07:29:00.000Z,101213.63
2022-12-25T07:32:08.744Z,101205.06
2022-12-25T07:35:17.673Z,101211.59
2022-12-25T07:38:25.718Z,101210.41
2022-12-25T07:41:40.673Z,101212.34
2022-12-25T07:44:49.706Z,101223.75
2022-12-25T07:48:04.447Z,101225.88
2022-12-25T07:51:18.664Z,101227.28
2022-12-25T07:54:33.721Z,101219.16
2022-12-25T07:57:35.725Z,101229.19
2022-12-25T08:00:50.816Z,101232.38
2022-12-25T08:04:01.793Z,101232.81
2022-12-25T08:07:16.796Z,101240.00
2022-12-25T08:10:25.812Z,101235.16
2022-12-25T08:13:34.867Z,101238.75
2022-12-25T08:16:43.856Z,101248.59
2022-12-25T08:19:52.407Z,101254.28
2022-12-25T08:23:00.701Z,101255.69
2022-12-25T08:26:21.741Z,101260.81
2022-12-25T08:29:43.702Z,101258.38
2022-12-25T08:32:52.460Z,101264.59
2022-12-25T08:36:09.796Z,101271.66
2022-12-25T08:39:11.846Z,101261.94
2022-12-25T08:42:26.745Z,101262.16
2022-12-25T08:45:42.027Z,101272.31
2022-12-25T08:48:50.624Z,101269.72
2022-12-25T08:52:07.740Z,101268.44
2022-12-25T08:55:09.803Z,101265.31
2022-12-25T08:58:24.858Z,101277.28
2022-12-25T09:01:27.048Z,101267.09
2022-12-25T09:04:41.741Z,101272.84
2022-12-25T09:07:49.748Z,101263.16
2022-12-25T09:11:03.549Z,101271.19
2022-12-25T09:14:18.748Z,101273.94
2022-12-25T09:17:20.585Z,101270.81
2022-12-25T09:20:35.707Z,101268.88
2022-12-25T09:23:45.177Z,101268.75
2022-12-25T09:26:59.741Z,101282.69
2022-12-25T09:30:01.764Z,101280.16
2022-12-25T09:33:16.758Z,101274.31
2022-12-25T09:36:19.096Z,101272.75
2022-12-25T09:39:33.821Z,101269.34
2022-12-25T09:42:43.478Z,101275.56
2022-12-25T09:45:57.861Z,101276.00
2022-12-25T09:49:20.480Z,101271.91
2022-12-25T09:52:43.828Z,101276.94
2022-12-25T09:56:10.804Z,101268.22
2022-12-25T09:59:25.153Z,101266.97
2022-12-25T10:03:03.920Z,101264.53
2022-12-25T10:06:21.224Z,101268.31
2022-12-25T10:09:46.894Z,101268.91
2022-12-25T10:13:32.796Z,101252.12
2022-12-25T10:16:49.373Z,101254.63
2022-12-25T10:20:20.804Z,101260.44
2022-12-25T10:23:38.858Z,101254.47
2022-12-25T10:26:56.415Z,101259.53
2022-12-25T10:30:21.768Z,101257.16
2022-12-25T10:33:37.791Z,101241.66
2022-12-25T10:36:53.805Z,101244.63
2022-12-25T10:40:02.932Z,101249.84
2022-12-25T10:43:16.784Z,101238.84
2022-12-25T10:46:26.897Z,101244.69
2022-12-25T10:49:38.539Z,101244.97
2022-12-25T10:53:00.867Z,101235.97
2022-12-25T10:56:18.060Z,101238.97
2022-12-25T10:59:26.889Z,101237.59
2022-12-25T11:02:40.772Z,101232.63
2022-12-25T11:05:56.816Z,101238.62
2022-12-25T11:09:12.815Z,101225.31
2022-12-25T11:12:19.019Z,101220.69
2022-12-25T11:15:45.798Z,101216.16
2022-12-25T11:18:50.892Z,101206.13
2022-12-25T11:22:08.795Z,101205.41
2022-12-25T11:25:15.157Z,101192.38
2022-12-25T11:28:39.862Z,101201.84
2022-12-25T11:31:51.211Z,101205.38
2022-12-25T11:34:59.824Z,101182.97
2022-12-25T11:38:15.882Z,101196.84
2022-12-25T11:41:21.060Z,101196.72
2022-12-25T11:44:49.048Z,101200.88
2022-12-25T11:48:02.176Z,101197.19
2022-12-25T11:51:16.837Z,101189.84
2022-12-25T11:54:30.157Z,101198.44
2022-12-25T11:57:46.797Z,101196.47
2022-12-25T12:00:52.186Z,101195.53
2022-12-25T12:04:08.915Z,101195.78
2022-12-25T12:07:31.851Z,101187.72
2022-12-25T12:10:54.724Z,101190.69
2022-12-25T12:14:29.834Z,101183.16
2022-12-25T12:17:38.444Z,101180.78
2022-12-25T12:20:46.858Z,101183.31
2022-12-25T12:24:18.869Z,101184.88
2022-12-25T12:27:45.897Z,101186.84
2022-12-25T12:31:06.892Z,101200.47
2022-12-25T12:34:26.029Z,101197.78
2022-12-25T12:37:38.869Z,101197.22
2022-12-25T12:40:58.723Z,101200.59
2022-12-25T12:44:16.871Z,101198.75
2022-12-25T12:47:47.971Z,101191.22
2022-12-25T12:51:12.920Z,101191.19
2022-12-25T12:54:25.237Z,101198.00
2022-12-25T12:57:37.152Z,101205.06
2022-12-25T13:01:02.863Z,101207.88
2022-12-25T13:04:31.899Z,101206.47
2022-12-25T13:07:57.844Z,101212.75
2022-12-25T13:11:17.865Z,101209.91
2022-12-25T13:14:32.923Z,101216.56
2022-12-25T13:17:35.704Z,101217.28
2022-12-25T13:20:57.056Z,101208.62
2022-12-25T13:24:05.440Z,101207.06
2022-12-25T13:27:31.872Z,101205.06
2022-12-25T13:30:40.661Z,101200.09
2022-12-25T13:34:25.929Z,101212.44
2022-12-25T13:37:37.945Z,101209.34
2022-12-25T13:40:51.928Z,101210.22
2022-12-25T13:44:06.935Z,101210.09
2022-12-25T13:47:26.897Z,101205.44
2022-12-25T13:50:36.021Z,101206.87
2022-12-25T13:53:44.984Z,101211.25
2022-12-25T13:56:55.299Z,101218.50
2022-12-25T14:00:03.972Z,101219.66
2022-12-25T14:03:20.080Z,101219.06
2022-12-25T14:06:37.917Z,101216.50
2022-12-25T14:09:57.254Z,101218.03
2022-12-25T14:13:10.896Z,101223.44
2022-12-25T14:16:27.012Z,101221.03
2022-12-25T14:19:35.784Z,101220.47
2022-12-25T14:22:57.929Z,101218.19
2022-12-25T14:25:59.838Z,101222.19
2022-12-25T14:29:28.301Z,101225.16
2022-12-25T14:32:43.887Z,101227.56
2022-12-25T14:35:59.983Z,101232.09
2022-12-25T14:39:06.814Z,101233.63
2022-12-25T14:42:33.008Z,101225.56
2022-12-25T14:45:47.941Z,101233.78
2022-12-25T14:49:05.970Z,101241.28
2022-12-25T14:52:29.016Z,101235.16
2022-12-25T14:55:37.961Z,101239.72
2022-12-25T14:58:52.633Z,101235.31
2022-12-25T15:02:05.144Z,101236.75
2022-12-25T15:05:25.691Z,101233.03
2022-12-25T15:08:36.006Z,101240.06
2022-12-25T15:11:49.652Z,101226.94
2022-12-25T15:14:58.009Z,101245.66
2022-12-25T15:18:13.003Z,101233.28
2022-12-25T15:21:20.086Z,101248.16
2022-12-25T15:24:35.976Z,101241.62
2022-12-25T15:27:37.814Z,101233.84
2022-12-25T15:30:54.072Z,101249.25
2022-12-25T15:33:58.197Z,101245.44
2022-12-25T15:37:13.229Z,101245.88
2022-12-25T15:40:22.993Z,101248.41
2022-12-25T15:43:40.687Z,101240.50
2022-12-25T15:46:56.004Z,101255.34
2022-12-25T15:50:11.959Z,101264.63
2022-12-25T15:53:14.189Z,101263.34
2022-12-25T15:56:29.988Z,101259.09
2022-12-25T15:59:44.985Z,101249.19
2022-12-25T16:02:47.046Z,101257.25
2022-12-25T16:06:01.982Z,101252.75
2022-12-25T16:09:04.529Z,101262.31
2022-12-25T16:12:19.028Z,101268.41
2022-12-25T16:15:27.673Z,101257.37
2022-12-25T16:18:47.081Z,101257.37
2022-12-25T16:21:49.785Z,101255.53
2022-12-25T16:25:05.039Z,101248.34
2022-12-25T16:28:13.356Z,101241.00
2022-12-25T16:31:28.062Z,101240.84
2022-12-25T16:34:43.067Z,101241.00
2022-12-25T16:37:51.605Z,101239.88
2022-12-25T16:41:04.077Z,101230.97
2022-12-25T16:44:12.620Z,101231.94
2022-12-25T16:47:21.024Z,101232.78
2022-12-25T16:50:36.011Z,101237.03
2022-12-25T16:53:38.842Z,101230.97
2022-12-25T16:56:54.069Z,101228.25
2022-12-25T17:00:03.035Z,101228.94
2022-12-25T17:03:12.177Z,101216.94
2022-12-25T17:06:26.231Z,101224.25
2022-12-25T17:09:44.407Z,101215.16
2022-12-25T17:12:52.788Z,101217.84
2022-12-25T17:16:01.126Z,101227.38
2022-12-25T17:19:20.954Z,101219.16
2022-12-25T17:22:36.017Z,101227.09
2022-12-25T17:25:37.758Z,101224.53
2022-12-25T17:28:52.027Z,101224.41
2022-12-25T17:32:07.081Z,101226.37
2022-12-25T17:35:15.751Z,101217.84
2022-12-25T17:38:30.213Z,101214.31
2022-12-25T17:41:39.107Z,101206.16
2022-12-25T17:44:47.017Z,101191.62
2022-12-25T17:48:02.058Z,101188.75
2022-12-25T17:51:20.027Z,101188.00
2022-12-25T17:54:28.067Z,101202.78
2022-12-25T17:57:43.095Z,101195.25
2022-12-25T18:00:45.071Z,101197.50
2022-12-25T18:04:01.129Z,101199.69
2022-12-25T18:07:03.248Z,101199.47
2022-12-25T18:10:18.326Z,101208.62
2022-12-25T18:13:26.739Z,101200.81
2022-12-25T18:16:39.194Z,101199.63
2022-12-25T18:19:50.356Z,101209.06
2022-12-25T18:23:05.084Z,101207.97
2022-12-25T18:26:14.166Z,101191.06
2022-12-25T18:29:29.084Z,101192.75
2022-12-25T18:32:37.796Z,101193.09
2022-12-25T18:35:48.101Z,101178.97
2022-12-25T18:38:57.882Z,101186.09
2022-12-25T18:42:13.091Z,101189.50
2022-12-25T18:45:22.031Z,101193.16
2022-12-25T18:48:39.117Z,101179.72
2022-12-25T18:51:41.074Z,101188.66
2022-12-25T18:54:56.068Z,101188.50
2022-12-25T18:57:58.539Z,101188.12
2022-12-25T19:01:24.299Z,101184.31
2022-12-25T19:04:33.083Z,101181.63
2022-12-25T19:07:48.150Z,101170.03
2022-12-25T19:10:50.523Z,101173.28
2022-12-25T19:14:05.109Z,101168.63
2022-12-25T19:17:14.149Z,101161.31
2022-12-25T19:20:29.123Z,101154.22
2022-12-25T19:23:38.314Z,101167.66
2022-12-25T19:26:47.065Z,101169.37
2022-12-25T19:30:02.107Z,101171.06
2022-12-25T19:33:18.237Z,101174.75
2022-12-25T19:36:27.897Z,101167.66
2022-12-25T19:39:44.118Z,101172.59
2022-12-25T19:42:46.203Z,101156.41
2022-12-25T19:46:01.198Z,101194.94
2022-12-25T19:49:03.850Z,101190.22
2022-12-25T19:52:20.150Z,101174.56
2022-12-25T19:55:29.102Z,101166.38
2022-12-25T19:58:45.076Z,101165.66
2022-12-25T20:01:47.330Z,101156.97
2022-12-25T20:05:02.129Z,101156.00
2022-12-25T20:08:11.236Z,101132.56
2022-12-25T20:11:28.158Z,101126.78
2022-12-25T20:14:36.232Z,101123.66
2022-12-25T20:17:47.219Z,101113.00
2022-12-25T20:20:56.177Z,101121.91
2022-12-25T20:24:05.397Z,101122.06
2022-12-25T20:27:20.269Z,101131.66
2022-12-25T20:30:35.430Z,101142.66
2022-12-25T20:33:45.297Z,101136.44
2022-12-25T20:36:54.272Z,101136.56
2022-12-25T20:40:02.881Z,101122.88
2022-12-25T20:43:18.257Z,101127.00
2022-12-25T20:46:27.358Z,101119.66
2022-12-25T20:49:35.821Z,101129.41
2022-12-25T20:52:44.176Z,101124.19
2022-12-25T20:55:59.146Z,101128.69
2022-12-25T20:59:02.387Z,101123.72
2022-12-25T21:02:34.263Z,101120.03
2022-12-25T21:05:45.224Z,101127.25
2022-12-25T21:09:00.152Z,101128.84
2022-12-25T21:12:01.972Z,101135.31
2022-12-25T21:15:17.206Z,101124.19
2022-12-25T21:18:22.192Z,101115.00
2022-12-25T21:21:37.195Z,101103.25
2022-12-25T21:24:39.043Z,101107.66
2022-12-25T21:27:54.180Z,101113.00
2022-12-25T21:31:09.338Z,101123.25
2022-12-25T21:34:24.189Z,101119.56
2022-12-25T21:37:36.155Z,101107.69
2022-12-25T21:40:45.198Z,101106.59
2022-12-25T21:44:01.180Z,101106.59
2022-12-25T21:47:03.218Z,101106.59
2022-12-25T21:50:18.266Z,101095.00
2022-12-25T21:53:20.177Z,101093.53
2022-12-25T21:56:43.001Z,101085.91
2022-12-25T21:59:45.613Z,101104.97
2022-12-25T22:03:00.314Z,101113.88
2022-12-25T22:06:02.343Z,101122.66
2022-12-25T22:09:17.521Z,101125.22
2022-12-25T22:12:33.907Z,101131.72
2022-12-25T22:15:43.096Z,101125.34
2022-12-25T22:18:55.208Z,101123.75
2022-12-25T22:22:03.945Z,101115.69
2022-12-25T22:25:13.260Z,101117.81
2022-12-25T22:28:35.228Z,101128.28
2022-12-25T22:31:46.877Z,101114.84
2022-12-25T22:35:02.181Z,101101.19
2022-12-25T22:38:17.214Z,101100.31
2022-12-25T22:41:29.880Z,101102.72
2022-12-25T22:44:48.215Z,101113.28
2022-12-25T22:47:56.171Z,101108.19
2022-12-25T22:51:11.223Z,101117.09
2022-12-25T22:54:14.312Z,101125.75
2022-12-25T22:57:30.276Z,101116.69
2022-12-25T23:00:45.938Z,101111.47
2022-12-25T23:04:01.342Z,101101.84
2022-12-25T23:07:10.225Z,101089.81
2022-12-25T23:10:26.325Z,101088.41
2022-12-25T23:13:28.124Z,101095.75
2022-12-25T23:16:44.277Z,101100.28
2022-12-25T23:19:46.160Z,101107.22
2022-12-25T23:23:01.359Z,101101.97
2022-12-25T23:26:10.354Z,101096.59
2022-12-25T23:29:25.568Z,101095.00
2022-12-25T23:32:40.266Z,101097.19
2022-12-25T23:35:48.920Z,101095.63
2022-12-25T23:39:08.927Z,101093.72
2022-12-25T23:42:12.254Z,101080.13
2022-12-25T23:45:27.238Z,101075.53
2022-12-25T23:48:29.423Z,101080.34
2022-12-25T23:51:46.241Z,101076.19
2022-12-25T23:54:54.234Z,101076.75
2022-12-25T23:58:09.367Z,101072.88
